Time;durP1;ratioP1;P1;durP2;ratioP2;P2;SDS_P1;SDS_P2;PMS_P1;PMS_P2;Temp;Humidity;BMP_temperature;BMP_pressure;BME280_temperature;BME280_humidity;BME280_pressure;Samples;Min_cycle;Max_cycle;Signal;HPM_P1;HPM_P2
2023/10/08 00:01:12;;;;;;;1999.90;999.90;;;17.40;96.90;;;;;;4934748;28;20040;-76
2023/10/08 00:03:40;;;;;;;1999.90;999.90;;;17.40;97.40;;;;;;4934651;28;20119;-78
2023/10/08 00:06:06;;;;;;;1999.90;999.90;;;17.20;97.40;;;;;;4934452;28;20028;-77
2023/10/08 00:08:33;;;;;;;1999.90;999.90;;;17.20;97.20;;;;;;4948877;28;20040;-78
2023/10/08 00:11:05;;;;;;;1999.90;999.90;;;17.30;97.20;;;;;;4933103;28;20032;-77
2023/10/08 00:13:31;;;;;;;1999.90;999.90;;;17.40;97.10;;;;;;4932962;28;20068;-76
2023/10/08 00:15:57;;;;;;;1999.90;999.90;;;17.30;97.20;;;;;;4934099;28;20089;-75
2023/10/08 00:18:23;;;;;;;1999.90;999.90;;;17.30;97.20;;;;;;4934397;28;20040;-78
2023/10/08 00:21:15;;;;;;;1999.90;999.90;;;17.30;97.40;;;;;;4932949;29;20040;-78
2023/10/08 00:23:42;;;;;;;1999.90;999.90;;;17.20;97.50;;;;;;4932990;28;20123;-77
2023/10/08 00:26:10;;;;;;;1999.90;999.90;;;17.20;97.60;;;;;;4934170;28;20082;-78
2023/10/08 00:28:36;;;;;;;1999.90;999.90;;;17.10;97.60;;;;;;4932625;28;20115;-76
2023/10/08 00:31:12;;;;;;;1999.90;999.90;;;17.00;97.60;;;;;;4934281;28;20472;-76
2023/10/08 00:33:43;;;;;;;1999.90;999.90;;;17.00;97.40;;;;;;4934427;28;20500;-77
2023/10/08 00:36:19;;;;;;;1999.90;999.90;;;17.00;97.60;;;;;;4934190;28;20020;-76
2023/10/08 00:38:53;;;;;;;1999.90;999.90;;;17.00;97.90;;;;;;4934146;28;20040;-77
2023/10/08 00:41:21;;;;;;;1999.90;999.90;;;17.00;98.10;;;;;;4934268;28;20075;-76
2023/10/08 00:43:48;;;;;;;1999.90;999.90;;;16.90;98.20;;;;;;4934179;28;20540;-77
2023/10/08 00:46:35;;;;;;;1999.90;999.90;;;17.00;98.00;;;;;;4933893;28;20457;-77
2023/10/08 00:51:47;;;;;;;1999.90;999.90;;;16.70;98.30;;;;;;4934426;29;20123;-76
2023/10/08 00:54:17;;;;;;;1999.90;999.90;;;16.60;98.30;;;;;;4934139;28;20042;-76
2023/10/08 00:56:49;;;;;;;1999.90;999.90;;;16.60;98.40;;;;;;4933610;28;20446;-76
2023/10/08 00:59:15;;;;;;;1999.90;999.90;;;16.70;98.50;;;;;;4947991;28;20047;-76
2023/10/08 01:01:51;;;;;;;1999.90;999.90;;;16.50;98.50;;;;;;4932353;28;20509;-80
2023/10/08 01:04:17;;;;;;;1999.90;999.90;;;16.70;98.70;;;;;;4934134;28;20040;-76
2023/10/08 01:06:43;;;;;;;1999.90;999.90;;;16.50;98.90;;;;;;4936693;28;20032;-77
2023/10/08 01:09:18;;;;;;;1999.90;999.90;;;16.50;98.40;;;;;;4936752;28;20363;-76
2023/10/08 01:11:49;;;;;;;1999.90;999.90;;;16.60;98.60;;;;;;4936814;28;20072;-76
2023/10/08 01:14:20;;;;;;;1999.90;999.90;;;16.60;98.40;;;;;;4936808;28;20040;-78
2023/10/08 01:16:47;;;;;;;1999.90;999.90;;;16.60;98.90;;;;;;4936621;28;20032;-76
2023/10/08 01:19:19;;;;;;;1999.90;999.90;;;16.50;99.10;;;;;;4950971;28;20090;-76
2023/10/08 01:21:45;;;;;;;1999.90;999.90;;;16.50;99.00;;;;;;4936726;28;20738;-76
2023/10/08 01:24:16;;;;;;;1999.90;999.90;;;16.40;99.10;;;;;;4936668;28;20036;-76
2023/10/08 01:26:42;;;;;;;1999.90;999.90;;;16.30;98.90;;;;;;4935159;29;20036;-77
2023/10/08 01:29:20;;;;;;;1999.90;999.90;;;16.40;98.80;;;;;;4936100;28;20040;-76
2023/10/08 01:31:53;;;;;;;1999.90;999.90;;;16.50;98.40;;;;;;4936745;28;20036;-76
2023/10/08 01:34:23;;;;;;;1999.90;999.90;;;16.50;98.60;;;;;;4935125;29;20040;-76
2023/10/08 01:36:48;;;;;;;1999.90;999.90;;;16.40;99.10;;;;;;4934775;28;20776;-76
2023/10/08 01:39:16;;;;;;;1999.90;999.90;;;16.20;99.10;;;;;;4934805;28;20040;-79
2023/10/08 01:41:46;;;;;;;1999.90;999.90;;;16.10;99.20;;;;;;4936372;28;20561;-76
2023/10/08 01:44:12;;;;;;;1999.90;999.90;;;16.00;99.30;;;;;;4936415;28;20036;-76
2023/10/08 01:46:40;;;;;;;1999.90;999.90;;;15.80;99.70;;;;;;4936176;28;20044;-76
2023/10/08 01:49:14;;;;;;;1999.90;999.90;;;15.80;99.90;;;;;;4950660;28;20036;-76
2023/10/08 01:51:46;;;;;;;1999.90;999.90;;;15.70;99.90;;;;;;4934916;28;20516;-76
2023/10/08 01:54:14;;;;;;;1999.90;999.90;;;15.60;99.90;;;;;;4934522;28;20040;-77
2023/10/08 01:56:41;;;;;;;1999.90;999.90;;;15.40;99.90;;;;;;4934454;28;20469;-77
2023/10/08 01:59:13;;;;;;;1999.90;999.90;;;15.20;99.90;;;;;;4934879;28;20098;-75
2023/10/08 02:01:39;;;;;;;1999.90;999.90;;;15.00;99.90;;;;;;4936365;28;20032;-76
2023/10/08 02:04:09;;;;;;;1999.90;999.90;;;14.70;99.90;;;;;;4936160;28;20040;-76
2023/10/08 02:06:35;;;;;;;1999.90;999.90;;;14.50;99.90;;;;;;4935341;29;20024;-76
2023/10/08 02:09:07;;;;;;;1999.90;999.90;;;14.30;99.90;;;;;;4935868;28;20485;-76
2023/10/08 02:11:43;;;;;;;1999.90;999.90;;;14.20;99.90;;;;;;4936259;28;20039;-76
2023/10/08 02:14:08;;;;;;;1999.90;999.90;;;14.20;99.90;;;;;;4936191;28;20040;-76
2023/10/08 02:16:34;;;;;;;1999.90;999.90;;;14.20;99.90;;;;;;4933971;28;20040;-76
2023/10/08 02:18:59;;;;;;;1999.90;999.90;;;14.20;99.90;;;;;;4935801;28;20067;-76
2023/10/08 02:21:25;;;;;;;1999.90;999.90;;;14.30;99.90;;;;;;4935866;28;20454;-77
2023/10/08 02:23:52;;;;;;;1999.90;999.90;;;14.30;99.90;;;;;;4935885;28;20111;-76
2023/10/08 02:26:19;;;;;;;1999.90;999.90;;;14.40;99.90;;;;;;4934158;28;20111;-77
2023/10/08 02:28:44;;;;;;;1999.90;999.90;;;14.40;99.90;;;;;;4935730;28;20124;-76
2023/10/08 02:31:10;;;;;;;1999.90;999.90;;;14.50;99.90;;;;;;4950416;28;20496;-76
2023/10/08 02:33:36;;;;;;;1999.90;999.90;;;14.50;99.90;;;;;;4935865;28;20552;-76
2023/10/08 02:36:04;;;;;;;1999.90;999.90;;;14.60;99.90;;;;;;4935330;28;20032;-76
2023/10/08 02:38:37;;;;;;;1999.90;999.90;;;14.70;99.90;;;;;;4935427;28;20036;-76
2023/10/08 02:41:06;;;;;;;1999.90;999.90;;;14.60;99.90;;;;;;4950251;28;20075;-77
2023/10/08 02:43:34;;;;;;;1999.90;999.90;;;14.70;99.90;;;;;;4935548;28;20035;-75
2023/10/08 02:46:00;;;;;;;1999.90;999.90;;;14.70;99.90;;;;;;4950020;28;20112;-76
2023/10/08 02:48:27;;;;;;;1999.90;999.90;;;14.60;99.90;;;;;;4935374;28;20047;-76
2023/10/08 02:50:54;;;;;;;1999.90;999.90;;;14.50;99.90;;;;;;4935567;28;20028;-75
2023/10/08 02:53:23;;;;;;;1999.90;999.90;;;14.60;99.90;;;;;;4949971;28;20484;-76
2023/10/08 02:55:49;;;;;;;1999.90;999.90;;;14.80;99.90;;;;;;4933818;28;20039;-75
2023/10/08 02:58:18;;;;;;;1999.90;999.90;;;14.80;99.90;;;;;;4935033;28;20043;-76
2023/10/08 03:00:46;;;;;;;1999.90;999.90;;;14.80;99.90;;;;;;4935653;28;20035;-76
2023/10/08 03:03:16;;;;;;;1999.90;999.90;;;14.90;99.90;;;;;;4935366;28;20038;-78
2023/10/08 03:05:46;;;;;;;1999.90;999.90;;;14.80;99.90;;;;;;4933707;28;20032;-75
2023/10/08 03:08:20;;;;;;;1999.90;999.90;;;14.80;99.90;;;;;;4934981;28;20036;-76
2023/10/08 03:10:48;;;;;;;1999.90;999.90;;;14.70;99.90;;;;;;4935548;28;20036;-76
2023/10/08 03:13:16;;;;;;;1999.90;999.90;;;14.70;99.90;;;;;;4935300;28;20036;-75
2023/10/08 03:18:35;;;;;;;1999.90;999.90;;;14.50;99.90;;;;;;4935122;29;20044;-76
2023/10/08 03:21:05;;;;;;;1999.90;999.90;;;14.50;99.90;;;;;;4935148;28;20072;-76
2023/10/08 03:23:34;;;;;;;1999.90;999.90;;;14.40;99.90;;;;;;4935076;28;20078;-76
2023/10/08 03:26:04;;;;;;;1999.90;999.90;;;14.50;99.90;;;;;;4934793;29;20540;-77
2023/10/08 03:28:34;;;;;;;1999.90;999.90;;;14.50;99.90;;;;;;4932626;28;20040;-76
2023/10/08 03:31:14;;;;;;;1999.90;999.90;;;14.50;99.90;;;;;;4935025;28;20094;-76
2023/10/08 03:33:39;;;;;;;1999.90;999.90;;;14.50;99.90;;;;;;4935171;28;20485;-76
2023/10/08 03:36:14;;;;;;;1999.90;999.90;;;14.60;99.90;;;;;;4934859;28;20032;-76
2023/10/08 03:39:10;;;;;;;1999.90;999.90;;;14.60;99.90;;;;;;4934976;28;20051;-75
2023/10/08 03:41:32;;;;;;;1999.90;999.90;;;14.70;99.90;;;;;;4934667;28;20071;-76
2023/10/08 03:44:12;;;;;;;1999.90;999.90;;;14.90;99.90;;;;;;4935089;28;20067;-76
2023/10/08 03:46:39;;;;;;;1999.90;999.90;;;14.90;99.90;;;;;;4934948;28;20028;-76
2023/10/08 03:51:48;;;;;;;1999.90;999.90;;;15.00;99.90;;;;;;4931995;28;20036;-76
2023/10/08 03:56:45;;;;;;;1999.90;999.90;;;14.70;99.90;;;;;;4934695;28;20107;-76
2023/10/08 03:59:20;;;;;;;1999.90;999.90;;;14.60;99.90;;;;;;4932382;28;20055;-76
2023/10/08 04:01:48;;;;;;;1999.90;999.90;;;14.70;99.90;;;;;;4949407;28;20119;-76
2023/10/08 04:04:14;;;;;;;1999.90;999.90;;;14.80;99.90;;;;;;4934622;28;20597;-76
2023/10/08 04:06:51;;;;;;;1999.90;999.90;;;14.80;99.90;;;;;;4934580;28;20115;-76
2023/10/08 04:09:23;;;;;;;1999.90;999.90;;;14.90;99.90;;;;;;4934607;28;20031;-76
2023/10/08 04:11:55;;;;;;;1999.90;999.90;;;14.80;99.90;;;;;;4949164;28;20473;-76
2023/10/08 04:14:23;;;;;;;1999.90;999.90;;;15.00;99.90;;;;;;4933317;28;20037;-76
2023/10/08 04:16:52;;;;;;;1999.90;999.90;;;14.90;99.90;;;;;;4933980;28;20028;-75
2023/10/08 04:19:26;;;;;;;1999.90;999.90;;;14.80;99.90;;;;;;4948807;28;20131;-76
2023/10/08 04:21:56;;;;;;;1999.90;999.90;;;14.60;99.90;;;;;;4948649;28;20041;-76
2023/10/08 04:24:34;;;;;;;1999.90;999.90;;;14.30;99.90;;;;;;4934257;28;20094;-76
2023/10/08 04:27:09;;;;;;;1999.90;999.90;;;14.10;99.90;;;;;;4932760;28;20036;-76
2023/10/08 04:29:37;;;;;;;1999.90;999.90;;;13.90;99.90;;;;;;4934390;28;20128;-76
2023/10/08 04:32:12;;;;;;;1999.90;999.90;;;13.80;99.90;;;;;;4934174;28;20032;-76
2023/10/08 04:34:38;;;;;;;1999.90;999.90;;;13.50;99.90;;;;;;4934531;28;20120;-75
2023/10/08 04:37:12;;;;;;;1999.90;999.90;;;13.40;99.90;;;;;;4934145;28;20036;-76
2023/10/08 04:39:40;;;;;;;1999.90;999.90;;;13.30;99.90;;;;;;4933910;28;20856;-76
2023/10/08 04:42:09;;;;;;;1999.90;999.90;;;13.20;99.90;;;;;;4932796;28;20047;-76
2023/10/08 04:44:38;;;;;;;1999.90;999.90;;;13.10;99.90;;;;;;4934052;28;20504;-77
2023/10/08 04:47:31;;;;;;;1999.90;999.90;;;13.00;99.90;;;;;;4933855;28;20032;-76
2023/10/08 04:49:56;;;;;;;1999.90;999.90;;;13.00;99.90;;;;;;4933424;28;20028;-76
2023/10/08 04:52:25;;;;;;;1999.90;999.90;;;13.10;99.90;;;;;;4948578;28;20119;-76
2023/10/08 04:54:54;;;;;;;1999.90;999.90;;;13.10;99.90;;;;;;4933958;28;20028;-76
2023/10/08 04:57:25;;;;;;;1999.90;999.90;;;13.00;99.90;;;;;;4932328;28;20040;-76
2023/10/08 04:59:51;;;;;;;1999.90;999.90;;;13.10;99.90;;;;;;4970418;22;20047;-77
2023/10/08 05:02:20;;;;;;;1999.90;999.90;;;12.90;99.90;;;;;;4952977;28;20035;-78
2023/10/08 05:08:00;;;;;;;1999.90;999.90;;;12.70;99.90;;;;;;4949872;28;20032;-77
2023/10/08 05:15:47;;;;;;;1999.90;999.90;;;12.40;99.90;;;;;;4949835;28;20069;-77
2023/10/08 05:21:25;;;;;;;1999.90;999.90;;;12.20;99.90;;;;;;4952927;28;20035;-77
2023/10/08 05:25:58;;;;;;;1999.90;999.90;;;12.10;99.90;;;;;;4952625;28;20750;-77
2023/10/08 05:28:24;;;;;;;1999.90;999.90;;;12.10;99.90;;;;;;4952427;28;20039;-77
2023/10/08 05:36:27;;;;;;;1999.90;999.90;;;11.90;99.90;;;;;;4952394;28;20036;-77
2023/10/08 05:39:00;;;;;;;1999.90;999.90;;;11.90;99.90;;;;;;4952415;28;20090;-77
2023/10/08 05:41:28;;;;;;;1999.90;999.90;;;12.00;99.90;;;;;;4952520;28;20023;-77
2023/10/08 05:44:23;;;;;;;1999.90;999.90;;;11.90;99.90;;;;;;4952437;28;20043;-77
2023/10/08 05:46:49;;;;;;;1999.90;999.90;;;11.90;99.90;;;;;;4952244;28;20509;-77
2023/10/08 06:11:14;;;;;;;1999.90;999.90;;;12.30;99.90;;;;;;4954877;28;20807;-77
2023/10/08 06:13:29;;;;;;;1999.90;999.90;;;12.30;99.90;;;;;;4967279;28;20505;-77
2023/10/08 06:18:27;;;;;;;1999.90;999.90;;;12.50;99.90;;;;;;4954892;28;20059;-77
2023/10/08 06:20:54;;;;;;;1999.90;999.90;;;12.60;99.90;;;;;;4955211;28;20481;-77
2023/10/08 06:23:22;;;;;;;1999.90;999.90;;;12.60;99.90;;;;;;4955112;28;20043;-77
2023/10/08 06:28:34;;;;;;;1999.90;999.90;;;12.50;99.90;;;;;;4955203;28;20050;-77
2023/10/08 06:31:03;;;;;;;1999.90;999.90;;;12.50;99.90;;;;;;4955035;28;20032;-77
2023/10/08 06:33:33;;;;;;;1999.90;999.90;;;12.40;99.90;;;;;;4954815;28;20036;-77
2023/10/08 06:36:05;;;;;;;1999.90;999.90;;;12.40;99.90;;;;;;4953236;28;20530;-77
2023/10/08 06:38:31;;;;;;;1999.90;999.90;;;12.40;99.90;;;;;;4952950;28;20504;-77
2023/10/08 06:41:00;;;;;;;1999.90;999.90;;;12.40;99.90;;;;;;4953206;28;20075;-77
2023/10/08 06:43:27;;;;;;;1999.90;999.90;;;12.50;99.90;;;;;;4953385;28;20485;-77
2023/10/08 06:45:53;;;;;;;1999.90;999.90;;;12.50;99.90;;;;;;4954628;28;20551;-77
2023/10/08 06:48:29;;;;;;;1999.90;999.90;;;12.50;99.90;;;;;;4954647;28;20040;-77
2023/10/08 06:50:56;;;;;;;1999.90;999.90;;;12.60;99.90;;;;;;4953373;28;20188;-77
2023/10/08 06:53:23;;;;;;;1999.90;999.90;;;12.60;99.90;;;;;;4954759;28;20101;-77
2023/10/08 06:55:56;;;;;;;1999.90;999.90;;;12.70;99.90;;;;;;4952835;28;20440;-77
2023/10/08 06:58:25;;;;;;;1999.90;999.90;;;12.80;99.90;;;;;;4952736;28;20551;-77
2023/10/08 07:00:52;;;;;;;1999.90;999.90;;;12.90;99.90;;;;;;4952956;28;20511;-77
2023/10/08 07:03:18;;;;;;;1999.90;999.90;;;13.00;99.90;;;;;;4953343;28;20040;-77
2023/10/08 07:05:59;;;;;;;1999.90;999.90;;;13.20;99.90;;;;;;4954323;28;20040;-77
2023/10/08 07:08:27;;;;;;;1999.90;999.90;;;13.40;99.90;;;;;;4954412;28;20543;-77
2023/10/08 07:10:53;;;;;;;1999.90;999.90;;;13.60;99.90;;;;;;4954322;28;20035;-77
2023/10/08 07:13:22;;;;;;;1999.90;999.90;;;13.70;99.90;;;;;;4954521;28;20475;-77
2023/10/08 07:15:55;;;;;;;1999.90;999.90;;;13.90;99.90;;;;;;4954188;28;20047;-77
2023/10/08 07:18:27;;;;;;;1999.90;999.90;;;14.00;99.90;;;;;;4952599;28;20043;-77
2023/10/08 07:20:53;;;;;;;1999.90;999.90;;;14.20;99.90;;;;;;4953067;28;20028;-77
2023/10/08 07:23:27;;;;;;;1999.90;999.90;;;14.40;99.90;;;;;;4954408;28;20489;-77
2023/10/08 07:26:01;;;;;;;1999.90;999.90;;;14.60;99.90;;;;;;4952434;28;20036;-77
2023/10/08 07:28:29;;;;;;;1999.90;999.90;;;14.70;99.90;;;;;;4954240;28;20038;-77
2023/10/08 07:30:54;;;;;;;1999.90;999.90;;;14.80;99.90;;;;;;4952831;28;20126;-78
2023/10/08 07:33:24;;;;;;;1999.90;999.90;;;15.00;99.90;;;;;;4954137;28;20111;-77
2023/10/08 07:35:53;;;;;;;1999.90;999.90;;;15.10;99.90;;;;;;4953896;28;20401;-78
2023/10/08 07:38:19;;;;;;;1999.90;999.90;;;15.10;99.90;;;;;;4953907;28;20126;-77
2023/10/08 07:40:44;;;;;;;1999.90;999.90;;;15.20;99.90;;;;;;4954232;28;20093;-77
2023/10/08 07:43:10;;;;;;;1999.90;999.90;;;15.10;99.90;;;;;;4953000;28;20035;-78
2023/10/08 07:45:36;;;;;;;1999.90;999.90;;;15.20;99.90;;;;;;4952567;28;20036;-77
2023/10/08 07:48:09;;;;;;;1999.90;999.90;;;15.20;99.90;;;;;;4953620;28;20485;-77
2023/10/08 07:50:37;;;;;;;1999.90;999.90;;;15.30;99.90;;;;;;4954121;28;20104;-77
2023/10/08 07:53:04;;;;;;;1999.90;999.90;;;15.40;99.90;;;;;;4954003;28;20489;-78
2023/10/08 07:55:32;;;;;;;1999.90;999.90;;;15.50;99.90;;;;;;4954039;28;20032;-77
2023/10/08 07:57:58;;;;;;;1999.90;999.90;;;15.60;99.90;;;;;;4952169;28;20040;-78
2023/10/08 08:00:26;;;;;;;1999.90;999.90;;;15.70;99.90;;;;;;4953594;28;20039;-78
2023/10/08 08:02:56;;;;;;;1999.90;999.90;;;15.80;99.90;;;;;;4953863;28;20110;-78
2023/10/08 08:05:22;;;;;;;1999.90;999.90;;;16.00;99.90;;;;;;4953711;28;20032;-77
2023/10/08 08:07:52;;;;;;;1999.90;999.90;;;16.10;99.90;;;;;;4951916;28;20405;-77
2023/10/08 08:10:18;;;;;;;1999.90;999.90;;;16.60;99.90;;;;;;4952200;28;20039;-77
2023/10/08 08:12:45;;;;;;;1999.90;999.90;;;16.90;99.90;;;;;;4953727;28;20083;-77
2023/10/08 08:15:21;;;;;;;1999.90;999.90;;;17.20;99.90;;;;;;4953142;28;20035;-78
2023/10/08 08:17:48;;;;;;;1999.90;999.90;;;17.40;99.90;;;;;;4953388;28;20039;-78
2023/10/08 08:20:21;;;;;;;1999.90;999.90;;;17.50;99.90;;;;;;4953524;28;20039;-77
2023/10/08 08:22:50;;;;;;;1999.90;999.90;;;17.50;99.90;;;;;;4953807;28;20032;-78
2023/10/08 08:25:26;;;;;;;1999.90;999.90;;;17.60;99.90;;;;;;4953443;28;20516;-78
2023/10/08 08:27:53;;;;;;;1999.90;999.90;;;17.50;99.90;;;;;;4953444;28;20082;-78
2023/10/08 08:30:19;;;;;;;1999.90;999.90;;;17.50;99.90;;;;;;4953281;28;20062;-77
2023/10/08 08:32:49;;;;;;;1999.90;999.90;;;17.50;99.90;;;;;;4953565;28;20520;-78
2023/10/08 08:35:19;;;;;;;1999.90;999.90;;;17.60;99.90;;;;;;4953426;28;20031;-77
2023/10/08 08:37:49;;;;;;;1999.90;999.90;;;17.70;99.90;;;;;;4953191;28;20197;-77
2023/10/08 08:40:19;;;;;;;1999.90;999.90;;;17.80;99.90;;;;;;4951827;28;20040;-77
2023/10/08 08:42:46;;;;;;;1999.90;999.90;;;18.00;99.90;;;;;;4953326;28;20028;-78
2023/10/08 08:45:15;;;;;;;1999.90;999.90;;;18.30;99.90;;;;;;4953714;28;20044;-77
2023/10/08 08:47:41;;;;;;;1999.90;999.90;;;18.70;99.90;;;;;;4952903;28;20032;-78
2023/10/08 08:50:10;;;;;;;1999.90;999.90;;;18.90;99.90;;;;;;4952783;28;20028;-78
2023/10/08 08:52:37;;;;;;;1999.90;999.90;;;19.10;99.90;;;;;;4953127;28;20127;-78
2023/10/08 08:55:14;;;;;;;1999.90;999.90;;;19.30;99.90;;;;;;4953231;28;20047;-78
2023/10/08 08:57:41;;;;;;;1999.90;999.90;;;19.40;99.90;;;;;;4952971;28;20580;-78
2023/10/08 09:00:10;;;;;;;1999.90;999.90;;;19.60;99.90;;;;;;4951200;28;20139;-77
2023/10/08 09:02:39;;;;;;;1999.90;999.90;;;20.00;99.90;;;;;;4952936;28;20035;-78
2023/10/08 09:05:33;;;;;;;1999.90;999.90;;;20.00;99.90;;;;;;4952988;28;20043;-78
2023/10/08 09:08:09;;;;;;;1999.90;999.90;;;20.00;99.90;;;;;;4952010;28;20079;-78
2023/10/08 09:10:37;;;;;;;1999.90;999.90;;;20.20;99.90;;;;;;4951551;28;20039;-78
2023/10/08 09:13:04;;;;;;;1999.90;999.90;;;20.30;99.90;;;;;;4952890;28;20102;-78
2023/10/08 09:15:32;;;;;;;1999.90;999.90;;;20.60;99.90;;;;;;4951512;28;20480;-78
2023/10/08 09:18:00;;;;;;;1999.90;999.90;;;20.80;99.90;;;;;;4952513;28;20035;-78
2023/10/08 09:20:27;;;;;;;1999.90;999.90;;;20.80;99.70;;;;;;4952590;28;20028;-78
2023/10/08 09:23:11;;;;;;;1999.90;999.90;;;20.70;99.20;;;;;;4952786;28;20042;-78
2023/10/08 09:25:38;;;;;;;1999.90;999.90;;;20.60;99.90;;;;;;4951792;28;20146;-78
2023/10/08 09:28:07;;;;;;;1999.90;999.90;;;20.70;99.90;;;;;;4955357;28;20118;-78
2023/10/08 09:30:37;;;;;;;1999.90;999.90;;;20.90;99.00;;;;;;4955513;28;20034;-78
2023/10/08 09:33:12;;;;;;;1999.90;999.90;;;21.00;98.80;;;;;;4954253;28;20067;-78
2023/10/08 09:35:38;;;;;;;1999.90;999.90;;;21.00;99.10;;;;;;4955797;28;20186;-78
2023/10/08 09:38:05;;;;;;;1999.90;999.90;;;21.00;98.30;;;;;;4955453;28;20035;-78
2023/10/08 09:40:31;;;;;;;1999.90;999.90;;;20.90;98.70;;;;;;4955723;28;20190;-78
2023/10/08 09:42:56;;;;;;;1999.90;999.90;;;21.10;98.30;;;;;;4955565;28;20178;-78
2023/10/08 09:45:22;;;;;;;1999.90;999.90;;;21.20;98.00;;;;;;4955515;28;20036;-78
2023/10/08 09:47:55;;;;;;;1999.90;999.90;;;21.20;97.70;;;;;;4955236;28;20035;-78
2023/10/08 09:50:33;;;;;;;1999.90;999.90;;;21.30;97.90;;;;;;4955137;28;20496;-78
2023/10/08 09:53:16;;;;;;;1999.90;999.90;;;21.30;98.00;;;;;;4955311;28;20472;-78
2023/10/08 09:55:45;;;;;;;1999.90;999.90;;;21.50;99.00;;;;;;4953716;28;20036;-78
2023/10/08 09:58:14;;;;;;;1999.90;999.90;;;21.50;97.30;;;;;;4954587;28;20043;-78
2023/10/08 10:00:41;;;;;;;1999.90;999.90;;;21.60;96.80;;;;;;4955359;28;20115;-78
2023/10/08 10:03:09;;;;;;;1999.90;999.90;;;21.60;97.70;;;;;;4955325;28;20032;-78
2023/10/08 10:05:38;;;;;;;1999.90;999.90;;;21.70;97.40;;;;;;4955075;28;20489;-78
2023/10/08 10:08:05;;;;;;;1999.90;999.90;;;21.60;97.30;;;;;;4954865;28;20070;-78
2023/10/08 10:10:38;;;;;;;1999.90;999.90;;;21.50;97.50;;;;;;4955158;28;20032;-78
2023/10/08 10:13:04;;;;;;;1999.90;999.90;;;21.80;98.20;;;;;;4955296;28;20040;-78
2023/10/08 10:15:34;;;;;;;1999.90;999.90;;;22.00;96.30;;;;;;4954943;28;20042;-78
2023/10/08 10:18:30;;;;;;;1999.90;999.90;;;22.00;96.30;;;;;;4954702;28;20043;-78
2023/10/08 10:21:19;;;;;;;1999.90;999.90;;;21.60;96.50;;;;;;4962717;28;20047;-78
2023/10/08 10:23:50;;;;;;;1999.90;999.90;;;21.20;97.40;;;;;;4960668;28;20044;-78
2023/10/08 10:26:33;;;;;;;1999.90;999.90;;;21.10;97.10;;;;;;4954889;28;20043;-78
2023/10/08 10:29:14;;;;;;;1999.90;999.90;;;21.00;97.50;;;;;;4953344;28;20105;-78
2023/10/08 10:31:58;;;;;;;1999.90;999.90;;;21.00;97.70;;;;;;4954851;28;20054;-78
2023/10/08 10:34:27;;;;;;;1999.90;999.90;;;21.20;97.30;;;;;;4953573;28;20047;-78
2023/10/08 10:37:02;;;;;;;1999.90;999.90;;;21.30;97.60;;;;;;4954161;28;20035;-78
2023/10/08 10:39:32;;;;;;;1999.90;999.90;;;21.40;96.60;;;;;;4953095;28;20493;-78
2023/10/08 10:42:06;;;;;;;1999.90;999.90;;;21.60;96.70;;;;;;4954648;28;20112;-78
2023/10/08 10:44:36;;;;;;;1999.90;999.90;;;21.70;96.20;;;;;;4954102;28;20039;-78
2023/10/08 10:49:52;;;;;;;1999.90;999.90;;;21.60;96.10;;;;;;4953956;28;20040;-78
2023/10/08 10:57:43;;;;;;;1999.90;999.90;;;21.70;96.20;;;;;;4954310;28;20040;-78
2023/10/08 11:02:59;;;;;;;1999.90;999.90;;;22.00;96.10;;;;;;4954909;28;20036;-78
2023/10/08 11:05:28;;;;;;;1999.90;999.90;;;21.90;96.10;;;;;;4954819;28;20036;-78
2023/10/08 11:08:00;;;;;;;1999.90;999.90;;;21.80;96.10;;;;;;4954107;28;20812;-78
2023/10/08 11:10:28;;;;;;;1999.90;999.90;;;21.80;95.90;;;;;;4954323;28;20552;-78
2023/10/08 11:12:54;;;;;;;1999.90;999.90;;;21.80;96.10;;;;;;4954481;28;20081;-78
2023/10/08 11:15:23;;;;;;;1999.90;999.90;;;21.70;95.50;;;;;;4955012;28;20040;-78
2023/10/08 11:17:50;;;;;;;1999.90;999.90;;;21.50;95.80;;;;;;4954020;28;20484;-78
2023/10/08 11:20:29;;;;;;;1999.90;999.90;;;21.30;96.80;;;;;;4954122;28;20039;-78
2023/10/08 11:22:55;;;;;;;1999.90;999.90;;;21.20;96.80;;;;;;4954363;28;20123;-78
2023/10/08 11:25:27;;;;;;;1999.90;999.90;;;21.40;97.50;;;;;;4954393;28;20177;-78
2023/10/08 11:28:01;;;;;;;1999.90;999.90;;;21.60;96.40;;;;;;4955374;28;20043;-78
2023/10/08 11:30:31;;;;;;;1999.90;999.90;;;21.80;96.80;;;;;;4954057;28;20472;-78
2023/10/08 11:32:59;;;;;;;1999.90;999.90;;;22.10;96.20;;;;;;4954093;28;20063;-78
2023/10/08 11:35:27;;;;;;;1999.90;999.90;;;22.20;96.30;;;;;;4952767;28;20065;-78
2023/10/08 11:37:58;;;;;;;1999.90;999.90;;;22.40;96.60;;;;;;4953800;28;20036;-78
2023/10/08 11:40:28;;;;;;;1999.90;999.90;;;22.60;94.70;;;;;;4952590;28;20115;-78
2023/10/08 11:42:59;;;;;;;1999.90;999.90;;;22.60;94.50;;;;;;4953887;28;20028;-78
2023/10/08 11:45:37;;;;;;;1999.90;999.90;;;22.30;94.80;;;;;;4954279;28;20040;-78
2023/10/08 11:48:13;;;;;;;1999.90;999.90;;;22.10;95.10;;;;;;4951751;28;20113;-78
2023/10/08 11:50:38;;;;;;;1999.90;999.90;;;21.80;95.60;;;;;;4952526;28;20031;-78
2023/10/08 11:53:05;;;;;;;1999.90;999.90;;;21.70;96.30;;;;;;4952619;28;20038;-78
2023/10/08 11:55:36;;;;;;;1999.90;999.90;;;21.70;96.00;;;;;;4952478;28;20065;-78
2023/10/08 11:58:09;;;;;;;1999.90;999.90;;;22.20;95.90;;;;;;4952189;28;20040;-78
2023/10/08 12:00:44;;;;;;;1999.90;999.90;;;23.00;95.80;;;;;;4953805;28;20046;-78
2023/10/08 12:03:17;;;;;;;1999.90;999.90;;;23.20;95.30;;;;;;4953913;28;20028;-78
2023/10/08 12:05:47;;;;;;;1999.90;999.90;;;23.50;94.30;;;;;;4952161;28;20119;-78
2023/10/08 12:08:17;;;;;;;1999.90;999.90;;;23.60;94.10;;;;;;4952181;28;20036;-78
2023/10/08 12:10:43;;;;;;;1999.90;999.90;;;23.60;94.20;;;;;;4952326;28;20040;-78
2023/10/08 12:13:10;;;;;;;1999.90;999.90;;;23.50;93.30;;;;;;4953791;28;20023;-78
2023/10/08 12:15:39;;;;;;;1999.90;999.90;;;23.50;93.50;;;;;;4952274;28;20036;-78
2023/10/08 12:18:08;;;;;;;1999.90;999.90;;;23.30;93.40;;;;;;4953213;28;20039;-78
2023/10/08 12:20:43;;;;;;;1999.90;999.90;;;23.20;93.50;;;;;;4953610;28;20527;-78
2023/10/08 12:23:23;;;;;;;1999.90;999.90;;;23.30;93.60;;;;;;4953602;28;20066;-78
2023/10/08 12:25:51;;;;;;;1999.90;999.90;;;23.40;93.50;;;;;;4953304;28;20166;-78
2023/10/08 12:28:18;;;;;;;1999.90;999.90;;;23.40;93.50;;;;;;4953117;28;20111;-75
2023/10/08 12:30:45;;;;;;;1999.90;999.90;;;23.10;93.40;;;;;;4953491;28;20035;-75
2023/10/08 12:33:12;;;;;;;1999.90;999.90;;;23.10;93.70;;;;;;4953481;28;20513;-76
2023/10/08 12:35:44;;;;;;;1999.90;999.90;;;22.90;94.60;;;;;;4953399;28;20074;-76
2023/10/08 12:38:09;;;;;;;1999.90;999.90;;;22.90;93.40;;;;;;4951607;28;20055;-78
2023/10/08 12:40:47;;;;;;;1999.90;999.90;;;22.80;93.50;;;;;;4953374;28;20036;-78
2023/10/08 12:43:13;;;;;;;1999.90;999.90;;;23.10;93.60;;;;;;4952888;28;20036;-78
2023/10/08 12:45:38;;;;;;;1999.90;999.90;;;23.20;94.60;;;;;;4951784;28;20082;-79
2023/10/08 12:48:05;;;;;;;1999.90;999.90;;;23.30;93.50;;;;;;4951649;28;20486;-78
2023/10/08 12:50:42;;;;;;;1999.90;999.90;;;23.30;93.20;;;;;;4953177;28;20039;-78
2023/10/08 12:53:11;;;;;;;1999.90;999.90;;;23.60;93.80;;;;;;4953277;28;20397;-79
2023/10/08 12:55:40;;;;;;;1999.90;999.90;;;23.50;92.80;;;;;;4952951;28;20036;-79
2023/10/08 12:58:09;;;;;;;1999.90;999.90;;;23.80;93.00;;;;;;4952571;28;20044;-78
2023/10/08 13:00:38;;;;;;;1999.90;999.90;;;23.80;92.70;;;;;;4953371;28;20090;-78
2023/10/08 13:03:07;;;;;;;1999.90;999.90;;;23.50;94.30;;;;;;4954582;28;20889;-78
2023/10/08 13:05:34;;;;;;;1999.90;999.90;;;23.40;93.50;;;;;;4954409;28;20049;-78
2023/10/08 13:08:09;;;;;;;1999.90;999.90;;;23.40;94.10;;;;;;4954286;28;20508;-78
2023/10/08 13:10:35;;;;;;;1999.90;999.90;;;23.50;92.70;;;;;;4955968;28;20039;-79
2023/10/08 13:13:01;;;;;;;1999.90;999.90;;;23.50;93.00;;;;;;4955872;28;20094;-78
2023/10/08 13:15:26;;;;;;;1999.90;999.90;;;23.80;92.80;;;;;;4955879;28;20040;-78
2023/10/08 13:17:52;;;;;;;1999.90;999.90;;;23.80;92.30;;;;;;4955581;28;20040;-78
2023/10/08 13:20:18;;;;;;;1999.90;999.90;;;23.80;91.80;;;;;;4955623;28;20572;-79